sensor_id;sensor_type;location;lat;lon;timestamp;pressure;altitude;pressure_sealevel;temperature;humidity
75208;BME280;63795;55.684;37.864;2022-11-24T00:04:52;99606.94;;;-2.42;79.37
75208;BME280;63795;55.684;37.864;2022-11-24T00:09:52;99617.38;;;-2.57;79.60
75208;BME280;63795;55.684;37.864;2022-11-24T00:14:53;99610.53;;;-2.68;79.75
75208;BME280;63795;55.684;37.864;2022-11-24T00:19:54;99616.06;;;-2.50;79.64
75208;BME280;63795;55.684;37.864;2022-11-24T00:24:54;99629.31;;;-2.47;79.89
75208;BME280;63795;55.684;37.864;2022-11-24T00:29:55;99620.00;;;-2.43;78.77
75208;BME280;63795;55.684;37.864;2022-11-24T00:34:55;99640.75;;;-2.49;78.56
75208;BME280;63795;55.684;37.864;2022-11-24T00:39:56;99632.72;;;-2.50;79.60
75208;BME280;63795;55.684;37.864;2022-11-24T00:44:56;99641.72;;;-2.45;79.81
75208;BME280;63795;55.684;37.864;2022-11-24T00:49:56;99650.53;;;-2.43;78.54
75208;BME280;63795;55.684;37.864;2022-11-24T00:54:57;99654.13;;;-2.51;79.00
75208;BME280;63795;55.684;37.864;2022-11-24T00:59:57;99647.56;;;-2.46;78.50
75208;BME280;63795;55.684;37.864;2022-11-24T01:04:58;99663.25;;;-2.59;77.88
75208;BME280;63795;55.684;37.864;2022-11-24T01:09:58;99662.41;;;-2.68;78.15
75208;BME280;63795;55.684;37.864;2022-11-24T01:14:59;99664.41;;;-2.69;78.69
75208;BME280;63795;55.684;37.864;2022-11-24T01:19:59;99667.97;;;-2.77;78.30
75208;BME280;63795;55.684;37.864;2022-11-24T01:25:00;99676.13;;;-2.72;79.07
75208;BME280;63795;55.684;37.864;2022-11-24T01:30:00;99697.84;;;-2.57;78.72
75208;BME280;63795;55.684;37.864;2022-11-24T01:35:04;99693.28;;;-2.61;78.00
75208;BME280;63795;55.684;37.864;2022-11-24T01:40:06;99689.03;;;-2.67;77.85
75208;BME280;63795;55.684;37.864;2022-11-24T01:50:26;99688.28;;;-2.98;77.47
75208;BME280;63795;55.684;37.864;2022-11-24T01:55:30;99699.88;;;-2.96;78.60
75208;BME280;63795;55.684;37.864;2022-11-24T02:00:35;99700.53;;;-2.99;78.30
75208;BME280;63795;55.684;37.864;2022-11-24T02:05:42;99708.69;;;-3.03;78.07
75208;BME280;63795;55.684;37.864;2022-11-24T02:10:44;99700.00;;;-3.10;78.34
75208;BME280;63795;55.684;37.864;2022-11-24T02:15:45;99721.59;;;-2.90;78.42
75208;BME280;63795;55.684;37.864;2022-11-24T02:20:45;99730.28;;;-2.83;77.75
75208;BME280;63795;55.684;37.864;2022-11-24T02:31:05;99742.00;;;-2.86;77.47
75208;BME280;63795;55.684;37.864;2022-11-24T02:36:06;99748.78;;;-3.09;78.12
75208;BME280;63795;55.684;37.864;2022-11-24T02:41:09;99752.13;;;-3.20;77.96
75208;BME280;63795;55.684;37.864;2022-11-24T02:46:10;99759.16;;;-3.23;78.37
75208;BME280;63795;55.684;37.864;2022-11-24T02:51:11;99745.28;;;-3.23;77.48
75208;BME280;63795;55.684;37.864;2022-11-24T02:56:11;99736.59;;;-3.30;77.58
75208;BME280;63795;55.684;37.864;2022-11-24T03:01:12;99734.66;;;-3.29;77.84
75208;BME280;63795;55.684;37.864;2022-11-24T03:06:12;99747.69;;;-3.30;78.23
75208;BME280;63795;55.684;37.864;2022-11-24T03:11:13;99755.66;;;-3.28;77.83
75208;BME280;63795;55.684;37.864;2022-11-24T03:16:13;99742.34;;;-3.49;78.08
75208;BME280;63795;55.684;37.864;2022-11-24T03:21:14;99755.59;;;-3.46;78.07
75208;BME280;63795;55.684;37.864;2022-11-24T03:26:17;99750.94;;;-3.59;78.53
75208;BME280;63795;55.684;37.864;2022-11-24T03:31:18;99751.50;;;-3.48;78.56
75208;BME280;63795;55.684;37.864;2022-11-24T03:36:18;99767.03;;;-3.38;78.68
75208;BME280;63795;55.684;37.864;2022-11-24T03:41:19;99761.47;;;-3.47;77.99
75208;BME280;63795;55.684;37.864;2022-11-24T03:46:19;99772.16;;;-3.54;78.83
75208;BME280;63795;55.684;37.864;2022-11-24T03:51:20;99782.03;;;-3.39;78.51
75208;BME280;63795;55.684;37.864;2022-11-24T03:56:20;99778.75;;;-3.41;77.69
75208;BME280;63795;55.684;37.864;2022-11-24T04:01:21;99790.59;;;-3.50;78.22
75208;BME280;63795;55.684;37.864;2022-11-24T04:06:21;99790.09;;;-3.52;78.47
75208;BME280;63795;55.684;37.864;2022-11-24T04:11:21;99785.22;;;-3.46;77.68
75208;BME280;63795;55.684;37.864;2022-11-24T04:16:40;99784.72;;;-3.48;77.61
75208;BME280;63795;55.684;37.864;2022-11-24T04:21:41;99797.66;;;-3.43;78.56
75208;BME280;63795;55.684;37.864;2022-11-24T04:26:41;99808.72;;;-3.43;77.90
75208;BME280;63795;55.684;37.864;2022-11-24T04:31:42;99801.59;;;-3.36;77.86
75208;BME280;63795;55.684;37.864;2022-11-24T04:36:42;99808.28;;;-3.37;78.39
75208;BME280;63795;55.684;37.864;2022-11-24T04:41:43;99800.34;;;-3.52;77.67
75208;BME280;63795;55.684;37.864;2022-11-24T04:46:43;99817.47;;;-3.50;78.24
75208;BME280;63795;55.684;37.864;2022-11-24T04:51:44;99823.66;;;-3.53;78.08
75208;BME280;63795;55.684;37.864;2022-11-24T04:56:44;99833.84;;;-3.62;78.04
75208;BME280;63795;55.684;37.864;2022-11-24T05:01:45;99835.16;;;-3.60;77.22
75208;BME280;63795;55.684;37.864;2022-11-24T05:06:46;99832.22;;;-3.63;77.16
75208;BME280;63795;55.684;37.864;2022-11-24T05:11:46;99846.75;;;-3.58;76.32
75208;BME280;63795;55.684;37.864;2022-11-24T05:16:47;99850.84;;;-3.55;76.85
75208;BME280;63795;55.684;37.864;2022-11-24T05:21:48;99856.50;;;-3.60;76.54
75208;BME280;63795;55.684;37.864;2022-11-24T05:26:48;99869.03;;;-3.63;76.96
75208;BME280;63795;55.684;37.864;2022-11-24T05:31:49;99868.31;;;-3.68;77.06
75208;BME280;63795;55.684;37.864;2022-11-24T05:36:49;99892.22;;;-3.72;76.35
75208;BME280;63795;55.684;37.864;2022-11-24T05:41:52;99896.16;;;-3.73;77.17
75208;BME280;63795;55.684;37.864;2022-11-24T05:46:53;99901.41;;;-3.85;77.42
75208;BME280;63795;55.684;37.864;2022-11-24T05:51:53;99911.03;;;-3.83;77.49
75208;BME280;63795;55.684;37.864;2022-11-24T05:56:54;99921.81;;;-3.81;77.38
75208;BME280;63795;55.684;37.864;2022-11-24T06:01:55;99925.59;;;-3.77;76.59
75208;BME280;63795;55.684;37.864;2022-11-24T06:06:55;99935.75;;;-3.86;77.60
75208;BME280;63795;55.684;37.864;2022-11-24T06:11:56;99936.91;;;-3.87;77.52
75208;BME280;63795;55.684;37.864;2022-11-24T06:16:56;99939.16;;;-3.89;77.31
75208;BME280;63795;55.684;37.864;2022-11-24T06:21:57;99933.19;;;-3.96;77.73
75208;BME280;63795;55.684;37.864;2022-11-24T06:26:58;99945.81;;;-3.90;77.37
75208;BME280;63795;55.684;37.864;2022-11-24T06:31:58;99949.00;;;-3.97;78.04
75208;BME280;63795;55.684;37.864;2022-11-24T06:36:58;99965.09;;;-3.99;77.73
75208;BME280;63795;55.684;37.864;2022-11-24T06:42:00;99958.41;;;-3.84;77.94
75208;BME280;63795;55.684;37.864;2022-11-24T06:47:00;99954.09;;;-3.90;77.54
75208;BME280;63795;55.684;37.864;2022-11-24T06:52:01;99970.13;;;-3.87;78.02
75208;BME280;63795;55.684;37.864;2022-11-24T06:57:01;99960.13;;;-3.75;77.88
75208;BME280;63795;55.684;37.864;2022-11-24T07:02:02;99977.47;;;-3.69;77.84
75208;BME280;63795;55.684;37.864;2022-11-24T07:07:02;99978.91;;;-3.72;76.65
75208;BME280;63795;55.684;37.864;2022-11-24T07:12:03;99982.63;;;-3.90;77.30
75208;BME280;63795;55.684;37.864;2022-11-24T07:17:05;99979.94;;;-4.08;77.45
75208;BME280;63795;55.684;37.864;2022-11-24T07:22:06;99973.31;;;-4.07;77.97
75208;BME280;63795;55.684;37.864;2022-11-24T07:27:07;99979.03;;;-3.90;77.83
75208;BME280;63795;55.684;37.864;2022-11-24T07:32:07;99979.66;;;-3.93;77.43
75208;BME280;63795;55.684;37.864;2022-11-24T07:37:07;99983.66;;;-3.99;77.43
75208;BME280;63795;55.684;37.864;2022-11-24T07:42:08;99978.13;;;-3.99;77.46
75208;BME280;63795;55.684;37.864;2022-11-24T07:47:10;99977.50;;;-3.96;77.12
75208;BME280;63795;55.684;37.864;2022-11-24T07:52:11;99978.28;;;-3.82;77.64
75208;BME280;63795;55.684;37.864;2022-11-24T07:57:11;99983.31;;;-3.71;77.37
75208;BME280;63795;55.684;37.864;2022-11-24T08:02:12;99982.22;;;-3.83;76.13
75208;BME280;63795;55.684;37.864;2022-11-24T08:07:12;99995.88;;;-3.87;76.57
75208;BME280;63795;55.684;37.864;2022-11-24T08:12:12;99992.97;;;-3.95;77.08
75208;BME280;63795;55.684;37.864;2022-11-24T08:17:13;99991.25;;;-3.91;76.93
75208;BME280;63795;55.684;37.864;2022-11-24T08:22:14;100006.69;;;-3.77;77.29
75208;BME280;63795;55.684;37.864;2022-11-24T08:27:14;100013.56;;;-3.74;76.18
75208;BME280;63795;55.684;37.864;2022-11-24T08:32:15;100020.34;;;-3.80;76.61
75208;BME280;63795;55.684;37.864;2022-11-24T08:37:16;100024.25;;;-3.95;76.46
75208;BME280;63795;55.684;37.864;2022-11-24T08:42:16;100024.16;;;-4.03;76.90
75208;BME280;63795;55.684;37.864;2022-11-24T08:47:17;100044.34;;;-3.89;77.17
75208;BME280;63795;55.684;37.864;2022-11-24T08:52:17;100045.38;;;-3.85;76.70
75208;BME280;63795;55.684;37.864;2022-11-24T08:57:17;100052.84;;;-3.86;76.31
75208;BME280;63795;55.684;37.864;2022-11-24T09:02:18;100058.59;;;-3.82;77.58
75208;BME280;63795;55.684;37.864;2022-11-24T09:07:18;100056.66;;;-3.68;77.23
75208;BME280;63795;55.684;37.864;2022-11-24T09:12:19;100069.38;;;-3.67;77.21
75208;BME280;63795;55.684;37.864;2022-11-24T09:17:19;100081.38;;;-3.58;77.07
75208;BME280;63795;55.684;37.864;2022-11-24T09:22:20;100074.41;;;-3.56;76.95
75208;BME280;63795;55.684;37.864;2022-11-24T09:27:20;100072.44;;;-3.41;76.61
75208;BME280;63795;55.684;37.864;2022-11-24T09:32:21;100078.09;;;-3.60;76.80
75208;BME280;63795;55.684;37.864;2022-11-24T09:37:21;100074.09;;;-3.68;76.82
75208;BME280;63795;55.684;37.864;2022-11-24T10:03:33;100070.63;;;-3.73;77.04
75208;BME280;63795;55.684;37.864;2022-11-24T10:08:47;100068.88;;;-3.69;76.56
75208;BME280;63795;55.684;37.864;2022-11-24T10:14:07;100084.97;;;-3.71;76.80
75208;BME280;63795;55.684;37.864;2022-11-24T10:19:29;100093.38;;;-3.76;76.46
75208;BME280;63795;55.684;37.864;2022-11-24T10:24:48;100100.56;;;-3.75;76.84
75208;BME280;63795;55.684;37.864;2022-11-24T10:29:51;100074.09;;;-3.81;76.46
75208;BME280;63795;55.684;37.864;2022-11-24T10:34:53;100084.66;;;-3.70;76.97
75208;BME280;63795;55.684;37.864;2022-11-24T10:40:23;100080.16;;;-3.79;76.05
75208;BME280;63795;55.684;37.864;2022-11-24T10:45:27;100095.81;;;-3.75;76.30
75208;BME280;63795;55.684;37.864;2022-11-24T10:50:35;100096.97;;;-3.76;76.53
75208;BME280;63795;55.684;37.864;2022-11-24T11:01:18;100099.72;;;-3.89;76.67
75208;BME280;63795;55.684;37.864;2022-11-24T11:06:26;100113.78;;;-3.86;77.11
75208;BME280;63795;55.684;37.864;2022-11-24T11:11:35;100115.09;;;-3.97;76.67
75208;BME280;63795;55.684;37.864;2022-11-24T11:16:39;100114.69;;;-3.90;76.78
75208;BME280;63795;55.684;37.864;2022-11-24T11:21:40;100128.97;;;-3.83;76.79
75208;BME280;63795;55.684;37.864;2022-11-24T11:26:42;100104.53;;;-3.95;76.08
75208;BME280;63795;55.684;37.864;2022-11-24T11:31:55;100131.25;;;-4.04;76.38
75208;BME280;63795;55.684;37.864;2022-11-24T11:36:56;100124.56;;;-4.16;76.35
75208;BME280;63795;55.684;37.864;2022-11-24T11:47:26;100113.03;;;-4.05;76.60
75208;BME280;63795;55.684;37.864;2022-11-24T11:52:49;100128.59;;;-4.09;76.66
75208;BME280;63795;55.684;37.864;2022-11-24T12:40:33;100114.84;;;-4.14;76.08
75208;BME280;63795;55.684;37.864;2022-11-24T12:45:56;100138.31;;;-4.11;76.44
75208;BME280;63795;55.684;37.864;2022-11-24T12:51:00;100169.66;;;-4.16;76.58
75208;BME280;63795;55.684;37.864;2022-11-24T12:56:13;100175.91;;;-4.24;76.64
75208;BME280;63795;55.684;37.864;2022-11-24T13:06:43;100178.50;;;-4.33;76.81
75208;BME280;63795;55.684;37.864;2022-11-24T13:12:12;100186.97;;;-4.24;76.38
75208;BME280;63795;55.684;37.864;2022-11-24T13:17:26;100186.81;;;-4.33;75.60
75208;BME280;63795;55.684;37.864;2022-11-24T13:22:28;100213.59;;;-4.28;75.69
75208;BME280;63795;55.684;37.864;2022-11-24T13:27:39;100209.47;;;-4.31;75.04
75208;BME280;63795;55.684;37.864;2022-11-24T13:47:54;100223.56;;;-4.46;75.26
75208;BME280;63795;55.684;37.864;2022-11-24T13:53:05;100229.81;;;-4.59;74.92
75208;BME280;63795;55.684;37.864;2022-11-24T13:58:44;100249.94;;;-4.53;75.54
75208;BME280;63795;55.684;37.864;2022-11-24T14:08:46;100239.28;;;-4.65;75.98
75208;BME280;63795;55.684;37.864;2022-11-24T14:13:48;100257.25;;;-4.62;75.87
75208;BME280;63795;55.684;37.864;2022-11-24T14:18:50;100261.00;;;-4.53;75.98
75208;BME280;63795;55.684;37.864;2022-11-24T14:29:05;100243.50;;;-4.67;75.70
75208;BME280;63795;55.684;37.864;2022-11-24T14:34:25;100263.59;;;-4.62;74.96
75208;BME280;63795;55.684;37.864;2022-11-24T14:39:27;100265.53;;;-4.62;75.43
75208;BME280;63795;55.684;37.864;2022-11-24T14:44:33;100273.84;;;-4.62;75.73
75208;BME280;63795;55.684;37.864;2022-11-24T14:49:44;100263.06;;;-4.64;75.38
75208;BME280;63795;55.684;37.864;2022-11-24T14:54:53;100266.38;;;-4.62;75.36
75208;BME280;63795;55.684;37.864;2022-11-24T15:05:05;100300.91;;;-4.83;75.90
75208;BME280;63795;55.684;37.864;2022-11-24T15:10:29;100301.38;;;-4.76;75.71
75208;BME280;63795;55.684;37.864;2022-11-24T15:15:46;100286.06;;;-4.68;76.17
75208;BME280;63795;55.684;37.864;2022-11-24T15:20:50;100303.41;;;-4.39;75.62
75208;BME280;63795;55.684;37.864;2022-11-24T15:25:55;100298.00;;;-4.31;75.30
75208;BME280;63795;55.684;37.864;2022-11-24T15:31:05;100311.31;;;-4.33;74.28
75208;BME280;63795;55.684;37.864;2022-11-24T15:36:06;100308.25;;;-4.50;74.30
75208;BME280;63795;55.684;37.864;2022-11-24T15:41:18;100308.28;;;-4.55;75.24
75208;BME280;63795;55.684;37.864;2022-11-24T15:46:19;100312.94;;;-4.50;75.27
75208;BME280;63795;55.684;37.864;2022-11-24T15:51:23;100309.56;;;-4.66;75.07
75208;BME280;63795;55.684;37.864;2022-11-24T15:56:34;100318.06;;;-4.62;75.15
75208;BME280;63795;55.684;37.864;2022-11-24T16:01:35;100321.56;;;-4.75;74.72
75208;BME280;63795;55.684;37.864;2022-11-24T16:06:36;100336.91;;;-4.88;75.71
75208;BME280;63795;55.684;37.864;2022-11-24T16:11:36;100336.69;;;-4.68;75.52
75208;BME280;63795;55.684;37.864;2022-11-24T16:22:28;100330.09;;;-4.72;75.14
75208;BME280;63795;55.684;37.864;2022-11-24T16:27:31;100330.50;;;-4.60;74.48
75208;BME280;63795;55.684;37.864;2022-11-24T16:32:33;100327.25;;;-4.67;75.13
75208;BME280;63795;55.684;37.864;2022-11-24T16:37:34;100336.06;;;-4.65;75.07
75208;BME280;63795;55.684;37.864;2022-11-24T16:42:39;100355.03;;;-4.53;74.88
75208;BME280;63795;55.684;37.864;2022-11-24T16:47:41;100349.97;;;-4.70;74.41
75208;BME280;63795;55.684;37.864;2022-11-24T16:52:44;100353.97;;;-4.81;73.94
75208;BME280;63795;55.684;37.864;2022-11-24T16:57:44;100345.78;;;-4.91;74.83
75208;BME280;63795;55.684;37.864;2022-11-24T17:02:46;100361.16;;;-4.80;74.50
75208;BME280;63795;55.684;37.864;2022-11-24T17:07:57;100341.16;;;-4.95;74.36
75208;BME280;63795;55.684;37.864;2022-11-24T17:13:05;100366.25;;;-4.92;74.74
75208;BME280;63795;55.684;37.864;2022-11-24T17:18:08;100361.25;;;-4.90;75.32
75208;BME280;63795;55.684;37.864;2022-11-24T17:23:09;100366.28;;;-4.97;74.77
75208;BME280;63795;55.684;37.864;2022-11-24T17:28:09;100374.16;;;-5.09;75.29
75208;BME280;63795;55.684;37.864;2022-11-24T17:33:16;100375.81;;;-5.08;75.35
75208;BME280;63795;55.684;37.864;2022-11-24T17:38:19;100369.97;;;-5.01;75.22
75208;BME280;63795;55.684;37.864;2022-11-24T17:43:23;100379.69;;;-5.09;75.73
75208;BME280;63795;55.684;37.864;2022-11-24T17:48:25;100378.63;;;-5.13;75.31
75208;BME280;63795;55.684;37.864;2022-11-24T17:53:30;100384.75;;;-5.16;75.44
75208;BME280;63795;55.684;37.864;2022-11-24T17:58:32;100384.66;;;-5.06;75.10
75208;BME280;63795;55.684;37.864;2022-11-24T18:03:33;100379.22;;;-5.16;75.13
75208;BME280;63795;55.684;37.864;2022-11-24T18:08:38;100381.91;;;-5.11;75.40
75208;BME280;63795;55.684;37.864;2022-11-24T18:13:39;100397.22;;;-4.95;74.87
75208;BME280;63795;55.684;37.864;2022-11-24T18:18:40;100391.16;;;-4.97;75.03
75208;BME280;63795;55.684;37.864;2022-11-24T18:23:42;100395.31;;;-4.94;74.15
75208;BME280;63795;55.684;37.864;2022-11-24T18:28:51;100413.72;;;-4.85;74.54
75208;BME280;63795;55.684;37.864;2022-11-24T18:33:55;100411.47;;;-4.83;74.99
75208;BME280;63795;55.684;37.864;2022-11-24T18:38:59;100411.38;;;-4.73;75.04
75208;BME280;63795;55.684;37.864;2022-11-24T18:44:00;100396.25;;;-4.80;74.19
75208;BME280;63795;55.684;37.864;2022-11-24T18:49:07;100403.63;;;-4.71;74.35
75208;BME280;63795;55.684;37.864;2022-11-24T18:54:08;100402.22;;;-4.68;74.24
75208;BME280;63795;55.684;37.864;2022-11-24T18:59:08;100411.75;;;-4.79;73.86
75208;BME280;63795;55.684;37.864;2022-11-24T19:04:11;100399.84;;;-4.80;73.88
75208;BME280;63795;55.684;37.864;2022-11-24T19:09:18;100414.78;;;-4.81;73.29
75208;BME280;63795;55.684;37.864;2022-11-24T19:14:21;100427.19;;;-4.78;74.44
75208;BME280;63795;55.684;37.864;2022-11-24T19:19:22;100440.63;;;-4.67;74.53
75208;BME280;63795;55.684;37.864;2022-11-24T19:24:25;100424.00;;;-4.62;73.58
75208;BME280;63795;55.684;37.864;2022-11-24T19:29:25;100430.09;;;-4.65;73.21
75208;BME280;63795;55.684;37.864;2022-11-24T19:34:26;100413.19;;;-4.87;73.30
75208;BME280;63795;55.684;37.864;2022-11-24T19:39:26;100434.19;;;-4.86;73.94
75208;BME280;63795;55.684;37.864;2022-11-24T19:44:36;100422.72;;;-4.98;73.26
75208;BME280;63795;55.684;37.864;2022-11-24T19:49:36;100422.66;;;-4.93;73.82
75208;BME280;63795;55.684;37.864;2022-11-24T19:54:37;100416.53;;;-4.90;73.35
75208;BME280;63795;55.684;37.864;2022-11-24T19:59:38;100436.53;;;-4.98;73.03
75208;BME280;63795;55.684;37.864;2022-11-24T20:04:39;100424.78;;;-5.13;74.08
75208;BME280;63795;55.684;37.864;2022-11-24T20:09:42;100434.84;;;-4.99;73.79
75208;BME280;63795;55.684;37.864;2022-11-24T20:14:42;100446.72;;;-4.93;73.80
75208;BME280;63795;55.684;37.864;2022-11-24T20:19:42;100432.59;;;-4.92;72.39
75208;BME280;63795;55.684;37.864;2022-11-24T20:24:43;100423.81;;;-4.99;72.99
75208;BME280;63795;55.684;37.864;2022-11-24T20:29:44;100440.06;;;-4.92;72.80
75208;BME280;63795;55.684;37.864;2022-11-24T20:34:45;100441.97;;;-4.88;73.42
75208;BME280;63795;55.684;37.864;2022-11-24T20:39:46;100442.16;;;-5.08;73.78
75208;BME280;63795;55.684;37.864;2022-11-24T20:44:50;100457.41;;;-4.87;74.74
75208;BME280;63795;55.684;37.864;2022-11-24T20:49:50;100457.84;;;-4.75;73.85
75208;BME280;63795;55.684;37.864;2022-11-24T20:54:53;100459.28;;;-4.77;74.21
75208;BME280;63795;55.684;37.864;2022-11-24T20:59:56;100461.69;;;-4.71;74.38
75208;BME280;63795;55.684;37.864;2022-11-24T21:04:57;100466.66;;;-4.68;74.65
75208;BME280;63795;55.684;37.864;2022-11-24T21:09:57;100468.56;;;-4.68;74.76
75208;BME280;63795;55.684;37.864;2022-11-24T21:14:58;100466.44;;;-4.76;74.57
75208;BME280;63795;55.684;37.864;2022-11-24T21:19:58;100479.44;;;-5.05;75.33
75208;BME280;63795;55.684;37.864;2022-11-24T21:24:58;100500.13;;;-5.03;75.79
75208;BME280;63795;55.684;37.864;2022-11-24T21:29:59;100502.06;;;-5.03;75.97
75208;BME280;63795;55.684;37.864;2022-11-24T21:34:59;100498.47;;;-5.04;75.84
75208;BME280;63795;55.684;37.864;2022-11-24T21:40:00;100492.63;;;-4.97;75.95
75208;BME280;63795;55.684;37.864;2022-11-24T21:45:00;100496.19;;;-4.97;76.01
75208;BME280;63795;55.684;37.864;2022-11-24T21:50:02;100501.78;;;-5.02;75.84
75208;BME280;63795;55.684;37.864;2022-11-24T21:55:03;100509.47;;;-4.94;75.80
75208;BME280;63795;55.684;37.864;2022-11-24T22:00:04;100497.34;;;-5.03;76.08
75208;BME280;63795;55.684;37.864;2022-11-24T22:05:06;100505.53;;;-5.22;76.54
75208;BME280;63795;55.684;37.864;2022-11-24T22:10:09;100503.00;;;-5.18;76.49
75208;BME280;63795;55.684;37.864;2022-11-24T22:15:10;100517.81;;;-5.04;76.45
75208;BME280;63795;55.684;37.864;2022-11-24T22:20:10;100514.00;;;-5.08;76.77
75208;BME280;63795;55.684;37.864;2022-11-24T22:25:11;100522.22;;;-5.03;76.11
75208;BME280;63795;55.684;37.864;2022-11-24T22:30:11;100506.19;;;-5.01;76.28
75208;BME280;63795;55.684;37.864;2022-11-24T22:35:12;100515.63;;;-5.07;76.24
75208;BME280;63795;55.684;37.864;2022-11-24T22:40:12;100522.28;;;-5.08;76.56
75208;BME280;63795;55.684;37.864;2022-11-24T22:45:15;100526.13;;;-5.09;76.50
75208;BME280;63795;55.684;37.864;2022-11-24T22:50:19;100530.56;;;-5.08;76.33
75208;BME280;63795;55.684;37.864;2022-11-24T22:55:19;100528.28;;;-4.96;76.39
75208;BME280;63795;55.684;37.864;2022-11-24T23:00:20;100536.44;;;-4.81;75.82
75208;BME280;63795;55.684;37.864;2022-11-24T23:05:20;100529.41;;;-5.02;74.87
75208;BME280;63795;55.684;37.864;2022-11-24T23:10:21;100536.63;;;-5.06;75.86
75208;BME280;63795;55.684;37.864;2022-11-24T23:15:21;100544.06;;;-5.01;75.46
75208;BME280;63795;55.684;37.864;2022-11-24T23:20:22;100543.00;;;-5.05;74.77
75208;BME280;63795;55.684;37.864;2022-11-24T23:25:22;100538.88;;;-5.13;75.22
75208;BME280;63795;55.684;37.864;2022-11-24T23:30:22;100552.63;;;-5.03;75.64
75208;BME280;63795;55.684;37.864;2022-11-24T23:35:23;100547.06;;;-4.98;74.85
75208;BME280;63795;55.684;37.864;2022-11-24T23:40:32;100549.00;;;-4.93;74.72
75208;BME280;63795;55.684;37.864;2022-11-24T23:45:33;100556.13;;;-4.87;74.81
75208;BME280;63795;55.684;37.864;2022-11-24T23:50:34;100543.19;;;-4.97;74.37
75208;BME280;63795;55.684;37.864;2022-11-24T23:55:34;100552.59;;;-4.98;74.41
